createdAt,value
2019-03-24T00:00:41.588Z,4.80
2019-03-24T00:03:09.700Z,4.80
2019-03-24T00:05:38.093Z,4.80
2019-03-24T00:08:09.475Z,4.80
2019-03-24T00:10:37.661Z,4.80
2019-03-24T00:13:05.899Z,4.80
2019-03-24T00:15:34.098Z,4.80
2019-03-24T00:18:23.463Z,4.80
2019-03-24T00:20:49.412Z,4.80
2019-03-24T00:23:17.606Z,4.80
2019-03-24T00:25:46.988Z,4.80
2019-03-24T00:28:16.388Z,4.80
2019-03-24T00:30:44.459Z,4.70
2019-03-24T00:33:12.762Z,4.70
2019-03-24T00:35:40.963Z,4.70
2019-03-24T00:38:12.201Z,4.70
2019-03-24T00:40:41.107Z,4.70
2019-03-24T00:43:11.080Z,4.70
2019-03-24T00:45:41.019Z,4.60
2019-03-24T00:48:11.245Z,4.60
2019-03-24T00:50:39.952Z,4.60
2019-03-24T00:53:41.809Z,4.60
2019-03-24T00:56:12.608Z,4.60
2019-03-24T00:58:42.932Z,4.60
2019-03-24T01:01:11.183Z,4.60
2019-03-24T01:03:39.298Z,4.60
2019-03-24T01:06:07.635Z,4.60
2019-03-24T01:08:35.798Z,4.60
2019-03-24T01:11:04.612Z,4.60
2019-03-24T01:13:33.351Z,4.60
2019-03-24T01:16:02.124Z,4.60
2019-03-24T01:18:32.271Z,4.60
2019-03-24T01:21:00.372Z,4.60
2019-03-24T01:23:28.881Z,4.60
2019-03-24T01:25:57.057Z,4.60
2019-03-24T01:28:26.185Z,4.60
2019-03-24T01:30:54.582Z,4.60
2019-03-24T01:33:23.032Z,4.50
2019-03-24T01:35:52.952Z,4.50
2019-03-24T01:38:22.558Z,4.60
2019-03-24T01:40:51.016Z,4.50
2019-03-24T01:43:19.491Z,4.50
2019-03-24T01:45:57.958Z,4.50
2019-03-24T01:48:18.184Z,4.50
2019-03-24T01:50:46.569Z,4.60
2019-03-24T01:53:15.665Z,4.50
2019-03-24T01:55:43.995Z,4.60
2019-03-24T01:58:12.100Z,4.60
2019-03-24T02:00:40.361Z,4.50
2019-03-24T02:03:09.123Z,4.50
2019-03-24T02:05:37.151Z,4.50
2019-03-24T02:08:05.835Z,4.50
2019-03-24T02:10:34.296Z,4.50
2019-03-24T02:13:02.937Z,4.50
2019-03-24T02:15:31.317Z,4.50
2019-03-24T02:18:00.259Z,4.50
2019-03-24T02:20:28.296Z,4.50
2019-03-24T02:22:56.863Z,4.40
2019-03-24T02:25:25.273Z,4.40
2019-03-24T02:27:53.695Z,4.40
2019-03-24T02:30:22.065Z,4.30
2019-03-24T02:32:50.540Z,4.30
2019-03-24T02:35:25.221Z,4.30
2019-03-24T02:37:53.580Z,4.30
2019-03-24T02:40:22.372Z,4.30
2019-03-24T02:42:50.467Z,4.40
2019-03-24T02:45:18.571Z,4.30
2019-03-24T02:47:47.438Z,4.30
2019-03-24T02:50:16.359Z,4.30
2019-03-24T02:52:45.228Z,4.30
2019-03-24T02:55:13.682Z,4.30
2019-03-24T02:57:42.198Z,4.30
2019-03-24T03:00:13.780Z,4.30
2019-03-24T03:02:41.836Z,4.30
2019-03-24T03:05:11.289Z,4.30
2019-03-24T03:07:39.945Z,4.30
2019-03-24T03:10:12.265Z,4.30
2019-03-24T03:12:40.418Z,4.30
2019-03-24T03:15:11.965Z,4.20
2019-03-24T03:17:40.480Z,4.30
2019-03-24T03:20:09.442Z,4.30
2019-03-24T03:22:37.584Z,4.30
2019-03-24T03:25:06.010Z,4.20
2019-03-24T03:27:34.445Z,4.30
2019-03-24T03:30:02.624Z,4.30
2019-03-24T03:32:31.153Z,4.30
2019-03-24T03:34:59.464Z,4.30
2019-03-24T03:37:29.350Z,4.30
2019-03-24T03:39:58.558Z,4.30
2019-03-24T03:42:27.523Z,4.30
2019-03-24T03:44:55.674Z,4.30
2019-03-24T03:47:24.203Z,4.30
2019-03-24T03:49:52.400Z,4.30
2019-03-24T03:52:20.551Z,4.30
2019-03-24T03:54:48.895Z,4.30
2019-03-24T03:57:17.751Z,4.30
2019-03-24T03:59:46.175Z,4.30
2019-03-24T04:02:14.386Z,4.30
2019-03-24T04:04:45.452Z,4.20
2019-03-24T04:07:13.761Z,4.30
2019-03-24T04:09:42.182Z,4.30
2019-03-24T04:12:10.787Z,4.30
2019-03-24T04:14:39.780Z,4.20
2019-03-24T04:17:08.184Z,4.30
2019-03-24T04:19:36.771Z,4.20
2019-03-24T04:22:05.325Z,4.20
2019-03-24T04:24:33.516Z,4.20
2019-03-24T04:27:02.038Z,4.20
2019-03-24T04:29:30.490Z,4.20
2019-03-24T04:32:00.855Z,4.20
2019-03-24T04:34:29.630Z,4.20
2019-03-24T04:36:58.087Z,4.20
2019-03-24T04:39:26.482Z,4.10
2019-03-24T04:41:55.539Z,4.10
2019-03-24T04:44:24.065Z,4.10
2019-03-24T04:46:52.839Z,4.10
2019-03-24T04:49:21.944Z,4.10
2019-03-24T04:51:51.213Z,4.10
2019-03-24T04:54:19.731Z,4.00
2019-03-24T04:56:48.119Z,4.10
2019-03-24T04:59:16.486Z,4.10
2019-03-24T05:01:45.406Z,4.10
2019-03-24T05:04:13.882Z,4.10
2019-03-24T05:06:42.674Z,4.10
2019-03-24T05:09:11.302Z,4.00
2019-03-24T05:11:39.514Z,4.00
2019-03-24T05:14:08.055Z,3.90
2019-03-24T05:16:36.331Z,3.90
2019-03-24T05:19:05.340Z,3.80
2019-03-24T05:21:34.652Z,3.70
2019-03-24T05:24:02.744Z,3.70
2019-03-24T05:26:31.021Z,3.70
2019-03-24T05:28:59.493Z,3.70
2019-03-24T05:31:27.711Z,3.70
2019-03-24T05:33:56.709Z,3.70
2019-03-24T05:36:26.860Z,3.70
2019-03-24T05:38:55.291Z,3.70
2019-03-24T05:41:23.723Z,3.70
2019-03-24T05:43:52.967Z,3.70
2019-03-24T05:46:21.482Z,3.80
2019-03-24T05:48:50.231Z,3.80
2019-03-24T05:51:19.324Z,3.80
2019-03-24T05:53:47.672Z,3.80
2019-03-24T05:56:15.819Z,3.90
2019-03-24T05:58:44.588Z,3.80
2019-03-24T06:01:12.961Z,3.80
2019-03-24T06:03:41.214Z,3.90
2019-03-24T06:06:10.870Z,4.00
2019-03-24T06:08:39.065Z,4.10
2019-03-24T06:11:07.269Z,4.30
2019-03-24T06:13:35.304Z,4.70
2019-03-24T06:16:03.794Z,5.80
2019-03-24T06:18:31.954Z,6.40
2019-03-24T06:21:00.096Z,6.70
2019-03-24T06:23:28.484Z,7.70
2019-03-24T06:25:56.505Z,7.60
2019-03-24T06:28:25.723Z,7.60
2019-03-24T06:30:54.448Z,8.80
2019-03-24T06:33:22.731Z,9.80
2019-03-24T06:35:51.118Z,11.20
2019-03-24T06:38:19.198Z,11.90
2019-03-24T06:40:48.216Z,12.00
2019-03-24T06:43:16.490Z,11.70
2019-03-24T06:45:45.233Z,11.30
2019-03-24T06:48:14.141Z,11.00
2019-03-24T06:50:42.641Z,10.50
2019-03-24T06:53:12.513Z,10.00
2019-03-24T06:55:41.232Z,9.70
2019-03-24T06:58:12.391Z,9.60
2019-03-24T07:00:43.407Z,9.60
2019-03-24T07:03:14.269Z,10.00
2019-03-24T07:06:04.991Z,10.20
2019-03-24T07:08:33.429Z,10.00
2019-03-24T07:11:11.420Z,9.50
2019-03-24T07:13:35.522Z,9.10
2019-03-24T07:16:03.985Z,8.80
2019-03-24T07:18:33.002Z,8.50
2019-03-24T07:21:04.898Z,8.30
2019-03-24T07:23:33.014Z,8.00
2019-03-24T07:26:05.730Z,7.80
2019-03-24T07:28:34.103Z,7.70
2019-03-24T07:31:02.936Z,7.50
2019-03-24T07:33:31.700Z,7.40
2019-03-24T07:42:27.564Z,7.20
2019-03-24T07:44:56.308Z,7.20
2019-03-24T07:50:53.735Z,7.10
2019-03-24T07:53:22.746Z,7.10
2019-03-24T07:55:52.663Z,7.00
2019-03-24T07:58:23.123Z,7.00
2019-03-24T08:00:54.343Z,7.10
2019-03-24T08:03:22.746Z,7.10
2019-03-24T08:05:57.993Z,7.10
2019-03-24T08:08:27.447Z,7.10
2019-03-24T08:10:58.134Z,7.10
2019-03-24T08:13:27.411Z,7.10
2019-03-24T08:22:27.698Z,7.30
2019-03-24T08:24:59.637Z,7.10
2019-03-24T08:28:41.845Z,6.90
2019-03-24T08:33:56.161Z,7.20
2019-03-24T08:36:25.078Z,7.40
2019-03-24T08:39:02.837Z,7.50
2019-03-24T08:41:31.545Z,7.60
2019-03-24T08:44:02.529Z,7.70
2019-03-24T08:46:30.674Z,7.80
2019-03-24T08:48:59.455Z,7.90
2019-03-24T08:51:27.621Z,7.70
2019-03-24T08:53:56.003Z,7.50
2019-03-24T08:56:24.871Z,7.50
2019-03-24T08:58:53.810Z,7.50
2019-03-24T09:01:21.969Z,7.60
2019-03-24T09:03:50.381Z,7.70
2019-03-24T09:06:18.593Z,7.80
2019-03-24T09:08:49.163Z,7.90
2019-03-24T09:11:18.243Z,7.90
2019-03-24T09:13:46.527Z,8.00
2019-03-24T09:16:15.229Z,8.20
2019-03-24T09:18:52.458Z,8.20
2019-03-24T09:21:15.651Z,8.30
2019-03-24T09:23:43.873Z,8.30
2019-03-24T09:26:12.569Z,8.30
2019-03-24T09:28:46.165Z,8.20
2019-03-24T09:31:14.876Z,8.20
2019-03-24T09:33:43.883Z,8.20
2019-03-24T09:36:12.898Z,8.30
2019-03-24T09:38:41.190Z,8.40
2019-03-24T09:41:09.815Z,8.60
2019-03-24T09:47:21.985Z,8.80
2019-03-24T09:49:53.404Z,8.90
2019-03-24T09:52:21.743Z,8.90
2019-03-24T09:54:50.352Z,8.90
2019-03-24T09:57:18.660Z,8.90
2019-03-24T09:59:48.040Z,9.00
2019-03-24T10:02:16.314Z,9.00
2019-03-24T10:04:45.042Z,9.10
2019-03-24T10:07:13.545Z,9.20
2019-03-24T10:09:41.850Z,9.30
2019-03-24T10:12:10.547Z,9.30
2019-03-24T10:14:39.383Z,9.40
2019-03-24T10:17:07.997Z,9.50
2019-03-24T10:19:36.931Z,9.40
2019-03-24T10:22:05.512Z,9.50
2019-03-24T10:24:33.722Z,9.30
2019-03-24T10:27:01.977Z,9.30
2019-03-24T10:29:31.359Z,9.50
2019-03-24T10:32:00.041Z,9.70
2019-03-24T10:34:29.087Z,10.00
2019-03-24T10:36:59.452Z,9.80
2019-03-24T10:39:28.988Z,9.90
2019-03-24T10:42:04.467Z,10.10
2019-03-24T10:44:37.150Z,10.20
2019-03-24T10:47:08.626Z,10.20
2019-03-24T10:49:39.119Z,10.30
2019-03-24T10:52:07.938Z,10.20
2019-03-24T10:54:49.953Z,10.30
2019-03-24T10:57:18.403Z,10.60
2019-03-24T10:59:56.830Z,10.70
2019-03-24T11:02:25.172Z,10.80
2019-03-24T11:04:56.101Z,10.90
2019-03-24T11:07:24.431Z,11.20
2019-03-24T11:09:53.942Z,11.30
2019-03-24T11:12:23.652Z,11.50
2019-03-24T11:15:01.713Z,11.70
2019-03-24T11:17:41.544Z,12.10
2019-03-24T11:20:10.698Z,12.40
2019-03-24T11:22:45.427Z,12.60
2019-03-24T11:25:18.460Z,12.80
2019-03-24T11:27:56.779Z,13.10
2019-03-24T11:30:26.690Z,13.30
2019-03-24T11:32:54.824Z,13.30
2019-03-24T11:35:26.452Z,13.20
2019-03-24T11:37:54.882Z,13.00
2019-03-24T11:40:27.806Z,13.00
2019-03-24T11:43:00.506Z,12.80
2019-03-24T11:45:29.353Z,12.60
2019-03-24T11:48:06.735Z,12.60
2019-03-24T11:50:35.867Z,12.50
2019-03-24T11:53:10.950Z,12.40
2019-03-24T11:55:39.857Z,12.80
2019-03-24T11:58:10.593Z,12.80
2019-03-24T12:00:40.418Z,13.10
2019-03-24T12:03:19.035Z,13.50
2019-03-24T12:08:53.787Z,13.90
2019-03-24T12:11:22.084Z,13.80
2019-03-24T12:13:51.712Z,13.30
2019-03-24T12:16:21.282Z,13.30
2019-03-24T12:18:52.322Z,13.40
2019-03-24T12:21:30.220Z,13.50
2019-03-24T12:23:59.026Z,13.70
2019-03-24T12:26:31.234Z,13.80
2019-03-24T12:28:59.752Z,14.00
2019-03-24T12:31:29.350Z,13.90
2019-03-24T12:33:59.547Z,14.10
2019-03-24T12:36:28.069Z,14.20
2019-03-24T12:38:58.604Z,14.40
2019-03-24T12:41:29.285Z,14.40
2019-03-24T12:44:09.713Z,14.40
2019-03-24T12:46:38.397Z,14.40
2019-03-24T12:49:09.365Z,14.30
2019-03-24T12:51:41.508Z,14.20
2019-03-24T12:54:11.601Z,14.40
2019-03-24T12:56:40.274Z,14.60
2019-03-24T12:59:18.200Z,14.40
2019-03-24T13:01:55.135Z,14.20
2019-03-24T13:04:24.937Z,14.30
2019-03-24T13:06:56.517Z,14.40
2019-03-24T13:09:39.548Z,14.00
2019-03-24T13:12:08.232Z,13.50
2019-03-24T13:14:38.025Z,13.10
2019-03-24T13:17:06.844Z,13.30
2019-03-24T13:19:42.135Z,13.70
2019-03-24T13:22:18.448Z,13.80
2019-03-24T13:24:52.831Z,13.70
2019-03-24T13:27:21.385Z,13.80
2019-03-24T13:29:49.954Z,13.40
2019-03-24T13:32:19.058Z,13.30
2019-03-24T13:34:50.597Z,13.30
2019-03-24T13:37:26.243Z,13.30
2019-03-24T13:39:57.490Z,13.00
2019-03-24T13:42:26.284Z,13.10
2019-03-24T13:44:54.787Z,13.20
2019-03-24T13:47:24.182Z,13.40
2019-03-24T13:50:03.322Z,13.60
2019-03-24T13:52:32.394Z,13.30
2019-03-24T13:55:00.865Z,13.10
2019-03-24T13:57:29.732Z,13.20
2019-03-24T13:59:58.552Z,13.20
2019-03-24T14:02:45.748Z,13.40
2019-03-24T14:05:14.520Z,13.20
2019-03-24T14:07:46.221Z,13.30
2019-03-24T14:10:26.275Z,13.20
2019-03-24T14:13:00.921Z,13.20
2019-03-24T14:15:42.717Z,13.30
2019-03-24T14:18:14.107Z,13.20
2019-03-24T14:20:43.631Z,13.30
2019-03-24T14:23:17.680Z,13.00
2019-03-24T14:25:46.332Z,12.90
2019-03-24T14:28:15.032Z,12.90
2019-03-24T14:30:47.013Z,13.00
2019-03-24T14:33:15.718Z,12.90
2019-03-24T14:35:44.398Z,13.10
2019-03-24T14:38:13.244Z,13.20
2019-03-24T14:40:46.235Z,13.30
2019-03-24T14:43:14.444Z,13.20
2019-03-24T14:45:53.712Z,13.20
2019-03-24T14:48:13.972Z,13.40
2019-03-24T14:50:53.559Z,13.10
2019-03-24T14:53:16.869Z,13.00
2019-03-24T14:56:05.870Z,12.90
2019-03-24T14:58:32.257Z,12.70
2019-03-24T15:01:11.809Z,12.30
2019-03-24T15:03:41.277Z,12.40
2019-03-24T15:06:18.159Z,12.50
2019-03-24T15:08:54.191Z,12.70
2019-03-24T15:11:22.936Z,12.60
2019-03-24T15:13:52.673Z,12.50
2019-03-24T15:16:21.363Z,12.50
2019-03-24T15:19:24.637Z,12.40
2019-03-24T15:21:55.524Z,12.30
2019-03-24T15:24:28.772Z,12.20
2019-03-24T15:26:57.240Z,12.20
2019-03-24T15:29:53.399Z,12.20
2019-03-24T15:32:21.639Z,12.20
2019-03-24T15:35:07.950Z,12.20
2019-03-24T15:37:38.960Z,12.10
2019-03-24T15:40:08.524Z,12.00
2019-03-24T15:42:44.974Z,12.00
2019-03-24T15:45:16.956Z,12.00
2019-03-24T15:47:45.646Z,12.00
2019-03-24T15:59:19.735Z,11.40
2019-03-24T16:01:54.840Z,11.50
2019-03-24T16:04:23.638Z,11.50
2019-03-24T16:07:08.938Z,11.60
2019-03-24T16:09:39.637Z,11.50
2019-03-24T16:12:07.919Z,11.30
2019-03-24T16:14:37.792Z,11.10
2019-03-24T16:17:11.375Z,11.10
2019-03-24T16:19:45.511Z,11.00
2019-03-24T16:22:15.451Z,10.80
2019-03-24T16:24:45.008Z,10.50
2019-03-24T16:27:15.731Z,10.40
2019-03-24T16:29:47.167Z,10.20
2019-03-24T16:32:24.248Z,10.20
2019-03-24T16:34:53.157Z,10.20
2019-03-24T16:37:28.467Z,10.10
2019-03-24T16:40:38.724Z,10.10
2019-03-24T16:42:56.776Z,10.10
2019-03-24T16:46:17.864Z,10.00
2019-03-24T16:50:08.817Z,9.80
2019-03-24T16:53:05.372Z,9.70
2019-03-24T17:21:49.222Z,8.80
2019-03-24T17:24:10.760Z,8.70
2019-03-24T17:26:39.713Z,8.70
2019-03-24T17:29:13.147Z,8.60
2019-03-24T17:31:45.127Z,8.50
2019-03-24T17:34:16.078Z,8.50
2019-03-24T17:36:45.004Z,8.40
2019-03-24T17:39:19.086Z,8.40
2019-03-24T17:41:47.749Z,8.30
2019-03-24T17:44:17.898Z,8.20
2019-03-24T17:46:52.447Z,8.20
2019-03-24T17:49:21.463Z,8.10
2019-03-24T17:52:14.311Z,8.00
2019-03-24T17:54:45.581Z,8.00
2019-03-24T17:58:12.921Z,7.90
2019-03-24T18:17:15.826Z,7.40
2019-03-24T18:19:56.289Z,7.30
2019-03-24T18:22:25.068Z,7.20
2019-03-24T18:24:57.851Z,7.10
2019-03-24T18:27:26.501Z,7.10
2019-03-24T18:29:59.415Z,7.00
2019-03-24T18:32:31.192Z,7.00
2019-03-24T18:35:00.041Z,6.90
2019-03-24T18:37:28.601Z,6.90
2019-03-24T18:40:38.407Z,6.80
2019-03-24T18:43:14.360Z,6.80
2019-03-24T18:46:32.969Z,6.70
2019-03-24T18:49:22.664Z,6.60
2019-03-24T18:52:27.884Z,6.50
2019-03-24T18:55:54.939Z,6.40
2019-03-24T19:06:47.910Z,6.30
2019-03-24T19:11:07.320Z,6.30
2019-03-24T19:16:35.457Z,6.30
2019-03-24T19:31:20.353Z,6.30
2019-03-24T19:34:18.287Z,6.30
2019-03-24T19:37:18.360Z,6.30
2019-03-24T19:40:08.328Z,6.30
2019-03-24T19:46:50.563Z,6.30
2019-03-24T19:49:24.903Z,6.30
2019-03-24T19:51:55.454Z,6.30
2019-03-24T19:54:46.290Z,6.30
2019-03-24T20:00:47.436Z,6.20
2019-03-24T20:03:17.141Z,6.20
2019-03-24T20:05:52.828Z,6.20
2019-03-24T20:08:26.615Z,6.20
2019-03-24T20:10:57.091Z,6.20
2019-03-24T20:13:59.440Z,6.20
2019-03-24T20:16:48.818Z,6.20
2019-03-24T20:54:47.167Z,5.60
2019-03-24T20:57:22.637Z,5.60
2019-03-24T21:00:26.676Z,5.80
2019-03-24T21:02:56.115Z,5.80
2019-03-24T21:05:33.877Z,5.80
2019-03-24T21:08:46.631Z,5.80
2019-03-24T21:11:16.827Z,5.80
2019-03-24T21:13:46.639Z,5.70
2019-03-24T21:16:25.365Z,5.60
2019-03-24T21:18:54.585Z,5.60
2019-03-24T21:21:41.058Z,5.50
2019-03-24T21:24:11.476Z,5.50
2019-03-24T21:26:43.295Z,5.50
2019-03-24T21:29:14.211Z,5.50
2019-03-24T21:38:06.101Z,5.40
2019-03-24T21:40:36.279Z,5.30
2019-03-24T21:43:07.759Z,5.30
2019-03-24T21:45:43.573Z,5.30
2019-03-24T21:48:15.585Z,5.20
2019-03-24T21:50:45.093Z,5.20
2019-03-24T21:53:14.403Z,5.20
2019-03-24T21:55:44.076Z,5.20
2019-03-24T21:58:13.855Z,5.10
2019-03-24T22:00:42.661Z,5.10
2019-03-24T22:03:20.557Z,5.10
2019-03-24T22:05:50.500Z,5.00
2019-03-24T22:08:19.748Z,5.00
2019-03-24T22:10:49.107Z,5.00
2019-03-24T22:13:18.156Z,5.00
2019-03-24T22:15:49.332Z,5.00
2019-03-24T22:18:18.864Z,4.90
2019-03-24T22:20:49.344Z,4.90
2019-03-24T22:23:19.957Z,4.80
2019-03-24T22:25:49.287Z,4.80
2019-03-24T22:28:18.410Z,4.70
2019-03-24T22:30:48.018Z,4.70
2019-03-24T22:33:17.587Z,4.70
2019-03-24T22:35:47.237Z,4.60
2019-03-24T22:38:17.165Z,4.60
2019-03-24T22:40:46.777Z,4.50
2019-03-24T22:43:18.393Z,4.50
2019-03-24T22:45:48.232Z,4.50
2019-03-24T22:48:17.610Z,4.50
2019-03-24T22:50:49.627Z,4.50
2019-03-24T22:53:19.801Z,4.50
2019-03-24T22:55:48.904Z,4.50
2019-03-24T22:58:18.918Z,4.50
2019-03-24T23:00:53.032Z,4.50
2019-03-24T23:03:25.298Z,4.40
2019-03-24T23:05:57.374Z,4.40
2019-03-24T23:08:26.801Z,4.40
2019-03-24T23:10:56.718Z,4.50
2019-03-24T23:13:27.389Z,4.50
2019-03-24T23:15:56.135Z,4.60
2019-03-24T23:18:25.797Z,4.70
2019-03-24T23:20:54.936Z,4.70
2019-03-24T23:23:24.092Z,4.80
2019-03-24T23:25:53.624Z,4.80
2019-03-24T23:28:22.817Z,4.90
2019-03-24T23:30:51.467Z,5.00
2019-03-24T23:33:21.547Z,5.00
2019-03-24T23:35:52.186Z,5.10
2019-03-24T23:38:21.898Z,5.10
2019-03-24T23:40:51.149Z,5.10
2019-03-24T23:43:20.235Z,5.10
2019-03-24T23:45:50.150Z,5.10
2019-03-24T23:48:19.162Z,5.10
2019-03-24T23:50:48.187Z,5.20
2019-03-24T23:53:16.927Z,5.20
2019-03-24T23:55:46.843Z,5.20
2019-03-24T23:58:16.337Z,5.10
